sensor_id;sensor_type;location;lat;lon;timestamp;temperature;humidity
30186;DHT22;31152;49.190;8.122;2023-05-01T00:02:03;11.50;99.90
30186;DHT22;31152;49.190;8.122;2023-05-01T00:04:32;11.50;99.90
30186;DHT22;31152;49.190;8.122;2023-05-01T00:06:59;11.50;99.90
30186;DHT22;31152;49.190;8.122;2023-05-01T00:09:26;11.50;99.90
30186;DHT22;31152;49.190;8.122;2023-05-01T00:11:53;11.50;99.90
30186;DHT22;31152;49.190;8.122;2023-05-01T00:14:20;11.50;99.90
30186;DHT22;31152;49.190;8.122;2023-05-01T00:16:47;11.50;99.90
30186;DHT22;31152;49.190;8.122;2023-05-01T00:19:14;11.50;99.90
30186;DHT22;31152;49.190;8.122;2023-05-01T00:21:45;11.50;99.90
30186;DHT22;31152;49.190;8.122;2023-05-01T00:24:14;11.50;99.90
30186;DHT22;31152;49.190;8.122;2023-05-01T00:26:43;11.50;99.90
30186;DHT22;31152;49.190;8.122;2023-05-01T00:29:10;11.50;99.90
30186;DHT22;31152;49.190;8.122;2023-05-01T00:31:37;11.50;99.90
30186;DHT22;31152;49.190;8.122;2023-05-01T00:34:03;11.50;99.90
30186;DHT22;31152;49.190;8.122;2023-05-01T00:36:30;11.50;99.90
30186;DHT22;31152;49.190;8.122;2023-05-01T00:39:02;11.40;99.90
30186;DHT22;31152;49.190;8.122;2023-05-01T00:41:29;11.40;99.90
30186;DHT22;31152;49.190;8.122;2023-05-01T00:43:56;11.40;99.90
30186;DHT22;31152;49.190;8.122;2023-05-01T00:46:23;11.40;99.90
30186;DHT22;31152;49.190;8.122;2023-05-01T00:48:51;11.40;99.90
30186;DHT22;31152;49.190;8.122;2023-05-01T00:51:20;11.50;99.90
30186;DHT22;31152;49.190;8.122;2023-05-01T00:53:48;11.40;99.90
30186;DHT22;31152;49.190;8.122;2023-05-01T00:56:17;11.40;99.90
30186;DHT22;31152;49.190;8.122;2023-05-01T00:58:48;11.40;99.90
30186;DHT22;31152;49.190;8.122;2023-05-01T01:01:16;11.50;99.90
30186;DHT22;31152;49.190;8.122;2023-05-01T01:03:43;11.50;99.90
30186;DHT22;31152;49.190;8.122;2023-05-01T01:06:16;11.50;99.90
30186;DHT22;31152;49.190;8.122;2023-05-01T01:11:39;11.50;99.90
30186;DHT22;31152;49.190;8.122;2023-05-01T01:14:16;11.50;99.90
30186;DHT22;31152;49.190;8.122;2023-05-01T01:22:12;11.50;99.90
30186;DHT22;31152;49.190;8.122;2023-05-01T01:27:53;11.50;99.90
30186;DHT22;31152;49.190;8.122;2023-05-01T01:36:10;11.40;99.90
30186;DHT22;31152;49.190;8.122;2023-05-01T01:39:01;11.40;99.90
30186;DHT22;31152;49.190;8.122;2023-05-01T01:41:35;11.40;99.90
30186;DHT22;31152;49.190;8.122;2023-05-01T01:44:18;11.50;99.90
30186;DHT22;31152;49.190;8.122;2023-05-01T01:46:48;11.50;99.90
30186;DHT22;31152;49.190;8.122;2023-05-01T01:49:20;11.50;99.90
30186;DHT22;31152;49.190;8.122;2023-05-01T01:51:50;11.50;99.90
30186;DHT22;31152;49.190;8.122;2023-05-01T01:54:34;11.50;99.90
30186;DHT22;31152;49.190;8.122;2023-05-01T01:57:06;11.50;99.90
30186;DHT22;31152;49.190;8.122;2023-05-01T01:59:34;11.50;99.90
30186;DHT22;31152;49.190;8.122;2023-05-01T02:02:01;11.50;99.90
30186;DHT22;31152;49.190;8.122;2023-05-01T02:04:30;11.50;99.90
30186;DHT22;31152;49.190;8.122;2023-05-01T02:06:58;11.50;99.90
30186;DHT22;31152;49.190;8.122;2023-05-01T02:09:29;11.50;99.90
30186;DHT22;31152;49.190;8.122;2023-05-01T02:11:57;11.50;99.90
30186;DHT22;31152;49.190;8.122;2023-05-01T02:14:26;11.60;99.90
30186;DHT22;31152;49.190;8.122;2023-05-01T02:16:54;11.60;99.90
30186;DHT22;31152;49.190;8.122;2023-05-01T02:19:23;11.50;99.90
30186;DHT22;31152;49.190;8.122;2023-05-01T02:21:53;11.60;99.90
30186;DHT22;31152;49.190;8.122;2023-05-01T02:24:27;11.60;99.90
30186;DHT22;31152;49.190;8.122;2023-05-01T02:27:26;11.50;99.90
30186;DHT22;31152;49.190;8.122;2023-05-01T02:29:54;11.60;99.90
30186;DHT22;31152;49.190;8.122;2023-05-01T02:32:21;11.60;99.90
30186;DHT22;31152;49.190;8.122;2023-05-01T02:34:50;11.50;99.90
30186;DHT22;31152;49.190;8.122;2023-05-01T02:37:19;11.60;99.90
30186;DHT22;31152;49.190;8.122;2023-05-01T02:39:46;11.50;99.90
30186;DHT22;31152;49.190;8.122;2023-05-01T02:42:16;11.60;99.90
30186;DHT22;31152;49.190;8.122;2023-05-01T02:44:52;11.60;99.90
30186;DHT22;31152;49.190;8.122;2023-05-01T02:47:22;11.50;99.90
30186;DHT22;31152;49.190;8.122;2023-05-01T02:49:50;11.50;99.90
30186;DHT22;31152;49.190;8.122;2023-05-01T02:52:21;11.60;99.90
30186;DHT22;31152;49.190;8.122;2023-05-01T02:54:48;11.60;99.90
30186;DHT22;31152;49.190;8.122;2023-05-01T02:57:19;11.60;99.90
30186;DHT22;31152;49.190;8.122;2023-05-01T02:59:46;11.60;99.90
30186;DHT22;31152;49.190;8.122;2023-05-01T03:02:13;11.60;99.90
30186;DHT22;31152;49.190;8.122;2023-05-01T03:04:42;11.60;99.90
30186;DHT22;31152;49.190;8.122;2023-05-01T03:07:09;11.60;99.90
30186;DHT22;31152;49.190;8.122;2023-05-01T03:09:38;11.60;99.90
30186;DHT22;31152;49.190;8.122;2023-05-01T03:12:04;11.60;99.90
30186;DHT22;31152;49.190;8.122;2023-05-01T03:14:33;11.70;99.90
30186;DHT22;31152;49.190;8.122;2023-05-01T03:17:00;11.70;99.90
30186;DHT22;31152;49.190;8.122;2023-05-01T03:19:27;11.70;99.90
30186;DHT22;31152;49.190;8.122;2023-05-01T03:21:53;11.70;99.90
30186;DHT22;31152;49.190;8.122;2023-05-01T03:24:23;11.70;99.90
30186;DHT22;31152;49.190;8.122;2023-05-01T03:26:49;11.70;99.90
30186;DHT22;31152;49.190;8.122;2023-05-01T03:29:16;11.80;99.90
30186;DHT22;31152;49.190;8.122;2023-05-01T03:31:43;11.80;99.90
30186;DHT22;31152;49.190;8.122;2023-05-01T03:34:10;11.80;99.90
30186;DHT22;31152;49.190;8.122;2023-05-01T03:36:36;11.80;99.90
30186;DHT22;31152;49.190;8.122;2023-05-01T03:39:03;11.80;99.90
30186;DHT22;31152;49.190;8.122;2023-05-01T03:41:30;11.80;99.90
30186;DHT22;31152;49.190;8.122;2023-05-01T03:43:57;11.80;99.90
30186;DHT22;31152;49.190;8.122;2023-05-01T03:46:23;11.90;99.90
30186;DHT22;31152;49.190;8.122;2023-05-01T03:48:53;11.80;99.90
30186;DHT22;31152;49.190;8.122;2023-05-01T03:51:19;11.90;99.90
30186;DHT22;31152;49.190;8.122;2023-05-01T03:53:49;11.90;99.90
30186;DHT22;31152;49.190;8.122;2023-05-01T03:56:16;11.90;99.90
30186;DHT22;31152;49.190;8.122;2023-05-01T03:58:46;11.90;99.90
30186;DHT22;31152;49.190;8.122;2023-05-01T04:01:12;11.90;99.90
30186;DHT22;31152;49.190;8.122;2023-05-01T04:03:39;11.90;99.90
30186;DHT22;31152;49.190;8.122;2023-05-01T04:06:06;11.90;99.90
30186;DHT22;31152;49.190;8.122;2023-05-01T04:08:33;11.90;99.90
30186;DHT22;31152;49.190;8.122;2023-05-01T04:11:00;11.90;99.90
30186;DHT22;31152;49.190;8.122;2023-05-01T04:13:27;11.90;99.90
30186;DHT22;31152;49.190;8.122;2023-05-01T04:15:53;11.90;99.90
30186;DHT22;31152;49.190;8.122;2023-05-01T04:18:23;12.00;99.90
30186;DHT22;31152;49.190;8.122;2023-05-01T04:20:50;11.90;99.90
30186;DHT22;31152;49.190;8.122;2023-05-01T04:23:17;11.90;99.90
30186;DHT22;31152;49.190;8.122;2023-05-01T04:25:43;12.00;99.90
30186;DHT22;31152;49.190;8.122;2023-05-01T04:28:12;12.00;99.90
30186;DHT22;31152;49.190;8.122;2023-05-01T04:30:41;11.90;99.90
30186;DHT22;31152;49.190;8.122;2023-05-01T04:33:10;12.00;99.90
30186;DHT22;31152;49.190;8.122;2023-05-01T04:35:38;12.00;99.90
30186;DHT22;31152;49.190;8.122;2023-05-01T04:38:06;12.00;99.90
30186;DHT22;31152;49.190;8.122;2023-05-01T04:40:34;12.00;99.90
30186;DHT22;31152;49.190;8.122;2023-05-01T04:43:04;12.00;99.90
30186;DHT22;31152;49.190;8.122;2023-05-01T04:45:31;12.00;99.90
30186;DHT22;31152;49.190;8.122;2023-05-01T04:48:00;12.00;99.90
30186;DHT22;31152;49.190;8.122;2023-05-01T04:50:27;12.00;99.90
30186;DHT22;31152;49.190;8.122;2023-05-01T04:52:53;12.10;99.90
30186;DHT22;31152;49.190;8.122;2023-05-01T04:55:20;12.10;99.90
30186;DHT22;31152;49.190;8.122;2023-05-01T04:57:52;12.10;99.90
30186;DHT22;31152;49.190;8.122;2023-05-01T05:00:19;12.10;99.90
30186;DHT22;31152;49.190;8.122;2023-05-01T05:02:49;12.10;99.90
30186;DHT22;31152;49.190;8.122;2023-05-01T05:05:15;12.20;99.90
30186;DHT22;31152;49.190;8.122;2023-05-01T05:07:42;12.20;99.90
30186;DHT22;31152;49.190;8.122;2023-05-01T05:10:11;12.20;99.90
30186;DHT22;31152;49.190;8.122;2023-05-01T05:12:43;12.30;99.90
30186;DHT22;31152;49.190;8.122;2023-05-01T05:15:09;12.30;99.90
30186;DHT22;31152;49.190;8.122;2023-05-01T05:17:36;12.40;99.90
30186;DHT22;31152;49.190;8.122;2023-05-01T05:20:03;12.40;99.90
30186;DHT22;31152;49.190;8.122;2023-05-01T05:22:31;12.50;99.90
30186;DHT22;31152;49.190;8.122;2023-05-01T05:25:00;12.50;99.90
30186;DHT22;31152;49.190;8.122;2023-05-01T05:27:30;12.60;99.90
30186;DHT22;31152;49.190;8.122;2023-05-01T05:30:07;12.70;99.90
30186;DHT22;31152;49.190;8.122;2023-05-01T05:32:34;12.70;99.90
30186;DHT22;31152;49.190;8.122;2023-05-01T05:35:00;12.80;99.90
30186;DHT22;31152;49.190;8.122;2023-05-01T05:37:27;12.80;99.90
30186;DHT22;31152;49.190;8.122;2023-05-01T05:39:56;12.90;99.90
30186;DHT22;31152;49.190;8.122;2023-05-01T05:42:25;12.90;99.90
30186;DHT22;31152;49.190;8.122;2023-05-01T05:44:52;12.90;99.90
30186;DHT22;31152;49.190;8.122;2023-05-01T05:47:19;12.90;99.90
30186;DHT22;31152;49.190;8.122;2023-05-01T05:49:46;12.90;99.90
30186;DHT22;31152;49.190;8.122;2023-05-01T05:52:15;12.90;99.90
30186;DHT22;31152;49.190;8.122;2023-05-01T05:54:46;13.00;99.90
30186;DHT22;31152;49.190;8.122;2023-05-01T05:57:15;13.00;99.90
30186;DHT22;31152;49.190;8.122;2023-05-01T05:59:41;13.00;99.90
30186;DHT22;31152;49.190;8.122;2023-05-01T06:02:09;13.00;99.90
30186;DHT22;31152;49.190;8.122;2023-05-01T06:04:36;13.00;99.90
30186;DHT22;31152;49.190;8.122;2023-05-01T06:07:03;13.00;99.90
30186;DHT22;31152;49.190;8.122;2023-05-01T06:09:34;13.00;99.90
30186;DHT22;31152;49.190;8.122;2023-05-01T06:12:01;13.00;99.90
30186;DHT22;31152;49.190;8.122;2023-05-01T06:14:30;13.00;99.90
30186;DHT22;31152;49.190;8.122;2023-05-01T06:16:59;13.10;99.90
30186;DHT22;31152;49.190;8.122;2023-05-01T06:19:26;13.10;99.90
30186;DHT22;31152;49.190;8.122;2023-05-01T06:21:53;13.10;99.90
30186;DHT22;31152;49.190;8.122;2023-05-01T06:24:22;13.10;99.90
30186;DHT22;31152;49.190;8.122;2023-05-01T06:26:49;13.20;99.90
30186;DHT22;31152;49.190;8.122;2023-05-01T06:29:17;13.20;99.90
30186;DHT22;31152;49.190;8.122;2023-05-01T06:31:49;13.20;99.90
30186;DHT22;31152;49.190;8.122;2023-05-01T06:34:16;13.20;99.90
30186;DHT22;31152;49.190;8.122;2023-05-01T06:36:42;13.30;99.90
30186;DHT22;31152;49.190;8.122;2023-05-01T06:39:12;13.30;99.90
30186;DHT22;31152;49.190;8.122;2023-05-01T06:41:40;13.40;99.90
30186;DHT22;31152;49.190;8.122;2023-05-01T06:44:07;13.40;99.90
30186;DHT22;31152;49.190;8.122;2023-05-01T06:46:38;13.40;99.90
30186;DHT22;31152;49.190;8.122;2023-05-01T06:49:05;13.50;99.90
30186;DHT22;31152;49.190;8.122;2023-05-01T06:51:32;13.50;99.90
30186;DHT22;31152;49.190;8.122;2023-05-01T06:53:59;13.50;99.90
30186;DHT22;31152;49.190;8.122;2023-05-01T06:56:26;13.50;99.90
30186;DHT22;31152;49.190;8.122;2023-05-01T06:58:53;13.60;99.90
30186;DHT22;31152;49.190;8.122;2023-05-01T07:01:19;13.60;99.90
30186;DHT22;31152;49.190;8.122;2023-05-01T07:03:46;13.70;99.90
30186;DHT22;31152;49.190;8.122;2023-05-01T07:06:13;13.70;99.90
30186;DHT22;31152;49.190;8.122;2023-05-01T07:08:40;13.80;99.90
30186;DHT22;31152;49.190;8.122;2023-05-01T07:11:07;13.90;99.90
30186;DHT22;31152;49.190;8.122;2023-05-01T07:13:34;14.00;99.90
30186;DHT22;31152;49.190;8.122;2023-05-01T07:16:00;14.00;99.90
30186;DHT22;31152;49.190;8.122;2023-05-01T07:18:27;14.10;99.90
30186;DHT22;31152;49.190;8.122;2023-05-01T07:20:57;14.20;99.90
30186;DHT22;31152;49.190;8.122;2023-05-01T07:23:24;14.30;99.90
30186;DHT22;31152;49.190;8.122;2023-05-01T07:25:51;14.40;99.90
30186;DHT22;31152;49.190;8.122;2023-05-01T07:28:18;14.40;99.90
30186;DHT22;31152;49.190;8.122;2023-05-01T07:30:48;14.40;99.90
30186;DHT22;31152;49.190;8.122;2023-05-01T07:33:15;14.50;99.90
30186;DHT22;31152;49.190;8.122;2023-05-01T07:35:43;14.50;99.90
30186;DHT22;31152;49.190;8.122;2023-05-01T07:38:10;14.60;99.90
30186;DHT22;31152;49.190;8.122;2023-05-01T07:40:37;14.60;99.90
30186;DHT22;31152;49.190;8.122;2023-05-01T07:43:04;14.70;99.90
30186;DHT22;31152;49.190;8.122;2023-05-01T07:45:30;14.80;99.90
30186;DHT22;31152;49.190;8.122;2023-05-01T07:47:57;14.80;99.90
30186;DHT22;31152;49.190;8.122;2023-05-01T07:50:25;14.80;99.90
30186;DHT22;31152;49.190;8.122;2023-05-01T07:52:52;14.90;99.90
30186;DHT22;31152;49.190;8.122;2023-05-01T07:55:21;14.90;99.90
30186;DHT22;31152;49.190;8.122;2023-05-01T07:57:50;14.90;99.90
30186;DHT22;31152;49.190;8.122;2023-05-01T08:00:17;14.90;99.90
30186;DHT22;31152;49.190;8.122;2023-05-01T08:02:44;14.90;99.90
30186;DHT22;31152;49.190;8.122;2023-05-01T08:05:14;14.90;99.90
30186;DHT22;31152;49.190;8.122;2023-05-01T08:07:40;15.00;99.90
30186;DHT22;31152;49.190;8.122;2023-05-01T08:10:07;15.00;99.90
30186;DHT22;31152;49.190;8.122;2023-05-01T08:12:34;15.10;99.90
30186;DHT22;31152;49.190;8.122;2023-05-01T08:15:01;15.10;99.90
30186;DHT22;31152;49.190;8.122;2023-05-01T08:17:28;15.20;99.90
30186;DHT22;31152;49.190;8.122;2023-05-01T08:19:55;15.20;99.90
30186;DHT22;31152;49.190;8.122;2023-05-01T08:22:22;15.20;99.90
30186;DHT22;31152;49.190;8.122;2023-05-01T08:24:49;15.30;99.90
30186;DHT22;31152;49.190;8.122;2023-05-01T08:27:19;15.40;99.90
30186;DHT22;31152;49.190;8.122;2023-05-01T08:29:46;15.50;99.90
30186;DHT22;31152;49.190;8.122;2023-05-01T08:32:14;15.50;99.90
30186;DHT22;31152;49.190;8.122;2023-05-01T08:34:41;15.50;99.90
30186;DHT22;31152;49.190;8.122;2023-05-01T08:37:07;15.60;99.90
30186;DHT22;31152;49.190;8.122;2023-05-01T08:39:37;15.70;99.90
30186;DHT22;31152;49.190;8.122;2023-05-01T08:42:03;15.70;99.90
30186;DHT22;31152;49.190;8.122;2023-05-01T08:44:30;15.70;99.90
30186;DHT22;31152;49.190;8.122;2023-05-01T08:47:10;15.80;99.90
30186;DHT22;31152;49.190;8.122;2023-05-01T08:49:41;15.90;99.90
30186;DHT22;31152;49.190;8.122;2023-05-01T08:52:13;15.90;99.90
30186;DHT22;31152;49.190;8.122;2023-05-01T08:54:43;15.90;99.90
30186;DHT22;31152;49.190;8.122;2023-05-01T08:57:11;16.00;99.90
30186;DHT22;31152;49.190;8.122;2023-05-01T08:59:39;16.10;99.90
30186;DHT22;31152;49.190;8.122;2023-05-01T09:02:12;16.20;99.90
30186;DHT22;31152;49.190;8.122;2023-05-01T09:04:40;16.30;99.90
30186;DHT22;31152;49.190;8.122;2023-05-01T09:07:07;16.40;99.90
30186;DHT22;31152;49.190;8.122;2023-05-01T09:09:35;16.50;99.80
30186;DHT22;31152;49.190;8.122;2023-05-01T09:12:13;16.60;99.70
30186;DHT22;31152;49.190;8.122;2023-05-01T09:14:43;16.70;99.40
30186;DHT22;31152;49.190;8.122;2023-05-01T09:17:14;16.60;99.40
30186;DHT22;31152;49.190;8.122;2023-05-01T09:19:41;16.80;99.20
30186;DHT22;31152;49.190;8.122;2023-05-01T09:22:10;16.80;98.90
30186;DHT22;31152;49.190;8.122;2023-05-01T09:24:37;16.80;98.90
30186;DHT22;31152;49.190;8.122;2023-05-01T09:27:05;16.80;98.70
30186;DHT22;31152;49.190;8.122;2023-05-01T09:29:43;16.80;99.20
30186;DHT22;31152;49.190;8.122;2023-05-01T09:34:48;17.20;99.90
30186;DHT22;31152;49.190;8.122;2023-05-01T09:37:32;17.50;99.00
30186;DHT22;31152;49.190;8.122;2023-05-01T09:40:03;17.90;97.80
30186;DHT22;31152;49.190;8.122;2023-05-01T09:42:31;18.10;96.70
30186;DHT22;31152;49.190;8.122;2023-05-01T09:44:59;18.20;97.30
30186;DHT22;31152;49.190;8.122;2023-05-01T09:47:27;18.60;96.70
30186;DHT22;31152;49.190;8.122;2023-05-01T09:49:55;18.90;96.20
30186;DHT22;31152;49.190;8.122;2023-05-01T09:52:27;19.20;95.10
30186;DHT22;31152;49.190;8.122;2023-05-01T09:55:13;19.30;95.20
30186;DHT22;31152;49.190;8.122;2023-05-01T09:57:45;19.40;94.30
30186;DHT22;31152;49.190;8.122;2023-05-01T10:00:13;19.40;93.90
30186;DHT22;31152;49.190;8.122;2023-05-01T10:02:45;19.40;93.80
30186;DHT22;31152;49.190;8.122;2023-05-01T10:05:15;19.00;94.10
30186;DHT22;31152;49.190;8.122;2023-05-01T10:07:56;18.60;94.90
30186;DHT22;31152;49.190;8.122;2023-05-01T10:10:23;18.00;95.50
30186;DHT22;31152;49.190;8.122;2023-05-01T10:12:50;17.80;96.50
30186;DHT22;31152;49.190;8.122;2023-05-01T10:15:19;17.70;97.20
30186;DHT22;31152;49.190;8.122;2023-05-01T10:17:52;17.80;96.60
30186;DHT22;31152;49.190;8.122;2023-05-01T10:20:20;18.00;96.40
30186;DHT22;31152;49.190;8.122;2023-05-01T10:22:47;18.10;96.30
30186;DHT22;31152;49.190;8.122;2023-05-01T10:25:16;18.20;96.20
30186;DHT22;31152;49.190;8.122;2023-05-01T10:27:43;18.30;95.70
30186;DHT22;31152;49.190;8.122;2023-05-01T10:30:10;18.10;96.70
30186;DHT22;31152;49.190;8.122;2023-05-01T10:32:40;17.80;97.40
30186;DHT22;31152;49.190;8.122;2023-05-01T10:35:18;17.60;97.80
30186;DHT22;31152;49.190;8.122;2023-05-01T10:37:50;17.40;98.70
30186;DHT22;31152;49.190;8.122;2023-05-01T10:43:21;18.00;97.80
30186;DHT22;31152;49.190;8.122;2023-05-01T10:46:25;18.30;97.10
30186;DHT22;31152;49.190;8.122;2023-05-01T10:48:53;18.40;97.70
30186;DHT22;31152;49.190;8.122;2023-05-01T10:51:24;18.50;96.50
30186;DHT22;31152;49.190;8.122;2023-05-01T10:59:05;18.50;95.80
30186;DHT22;31152;49.190;8.122;2023-05-01T11:04:44;18.40;96.80
30186;DHT22;31152;49.190;8.122;2023-05-01T11:12:14;18.90;96.40
30186;DHT22;31152;49.190;8.122;2023-05-01T11:17:43;19.00;96.00
30186;DHT22;31152;49.190;8.122;2023-05-01T11:20:12;18.80;96.30
30186;DHT22;31152;49.190;8.122;2023-05-01T11:22:47;18.70;96.40
30186;DHT22;31152;49.190;8.122;2023-05-01T11:25:22;18.50;96.30
30186;DHT22;31152;49.190;8.122;2023-05-01T11:27:49;18.30;96.20
30186;DHT22;31152;49.190;8.122;2023-05-01T11:30:16;18.20;97.00
30186;DHT22;31152;49.190;8.122;2023-05-01T11:32:45;18.20;97.40
30186;DHT22;31152;49.190;8.122;2023-05-01T11:35:22;18.20;97.20
30186;DHT22;31152;49.190;8.122;2023-05-01T11:37:50;18.20;97.40
30186;DHT22;31152;49.190;8.122;2023-05-01T11:40:27;18.30;97.30
30186;DHT22;31152;49.190;8.122;2023-05-01T11:43:12;18.30;97.30
30186;DHT22;31152;49.190;8.122;2023-05-01T11:45:39;18.40;97.30
30186;DHT22;31152;49.190;8.122;2023-05-01T11:48:13;18.40;97.10
30186;DHT22;31152;49.190;8.122;2023-05-01T11:50:42;18.40;97.40
30186;DHT22;31152;49.190;8.122;2023-05-01T11:53:13;18.40;96.90
30186;DHT22;31152;49.190;8.122;2023-05-01T11:55:44;18.30;96.60
30186;DHT22;31152;49.190;8.122;2023-05-01T11:58:14;18.30;97.10
30186;DHT22;31152;49.190;8.122;2023-05-01T12:00:41;18.40;97.60
30186;DHT22;31152;49.190;8.122;2023-05-01T12:03:13;18.50;97.60
30186;DHT22;31152;49.190;8.122;2023-05-01T12:05:43;18.70;97.20
30186;DHT22;31152;49.190;8.122;2023-05-01T12:08:18;18.80;97.50
30186;DHT22;31152;49.190;8.122;2023-05-01T12:10:51;18.90;97.00
30186;DHT22;31152;49.190;8.122;2023-05-01T12:13:19;19.10;97.20
30186;DHT22;31152;49.190;8.122;2023-05-01T12:15:48;19.30;96.40
30186;DHT22;31152;49.190;8.122;2023-05-01T12:18:16;19.30;95.80
30186;DHT22;31152;49.190;8.122;2023-05-01T12:20:45;19.40;95.70
30186;DHT22;31152;49.190;8.122;2023-05-01T12:23:31;19.50;95.90
30186;DHT22;31152;49.190;8.122;2023-05-01T12:25:59;19.50;95.30
30186;DHT22;31152;49.190;8.122;2023-05-01T12:28:27;19.50;95.40
30186;DHT22;31152;49.190;8.122;2023-05-01T12:31:00;19.30;95.40
30186;DHT22;31152;49.190;8.122;2023-05-01T12:33:30;19.30;95.70
30186;DHT22;31152;49.190;8.122;2023-05-01T12:36:08;19.40;95.80
30186;DHT22;31152;49.190;8.122;2023-05-01T12:38:39;19.60;96.10
30186;DHT22;31152;49.190;8.122;2023-05-01T12:41:06;19.90;94.90
30186;DHT22;31152;49.190;8.122;2023-05-01T12:43:36;19.90;95.00
30186;DHT22;31152;49.190;8.122;2023-05-01T12:46:04;20.00;94.80
30186;DHT22;31152;49.190;8.122;2023-05-01T12:48:37;19.90;94.30
30186;DHT22;31152;49.190;8.122;2023-05-01T12:51:04;19.90;94.80
30186;DHT22;31152;49.190;8.122;2023-05-01T12:53:32;19.90;94.50
30186;DHT22;31152;49.190;8.122;2023-05-01T12:56:01;19.70;93.50
30186;DHT22;31152;49.190;8.122;2023-05-01T12:58:35;19.60;94.40
30186;DHT22;31152;49.190;8.122;2023-05-01T13:01:03;19.80;94.90
30186;DHT22;31152;49.190;8.122;2023-05-01T13:03:30;20.00;94.50
30186;DHT22;31152;49.190;8.122;2023-05-01T13:06:02;20.20;94.50
30186;DHT22;31152;49.190;8.122;2023-05-01T13:08:37;20.30;94.60
30186;DHT22;31152;49.190;8.122;2023-05-01T13:11:14;20.10;93.90
30186;DHT22;31152;49.190;8.122;2023-05-01T13:13:45;20.20;93.30
30186;DHT22;31152;49.190;8.122;2023-05-01T13:16:14;20.00;92.80
30186;DHT22;31152;49.190;8.122;2023-05-01T13:18:48;20.00;94.10
30186;DHT22;31152;49.190;8.122;2023-05-01T13:21:17;19.70;93.40
30186;DHT22;31152;49.190;8.122;2023-05-01T13:23:53;19.90;94.10
30186;DHT22;31152;49.190;8.122;2023-05-01T13:26:31;19.90;93.30
30186;DHT22;31152;49.190;8.122;2023-05-01T13:29:01;19.80;93.30
30186;DHT22;31152;49.190;8.122;2023-05-01T13:31:29;19.80;93.90
30186;DHT22;31152;49.190;8.122;2023-05-01T13:34:01;19.90;94.20
30186;DHT22;31152;49.190;8.122;2023-05-01T13:36:32;20.00;93.90
30186;DHT22;31152;49.190;8.122;2023-05-01T13:38:59;20.00;93.40
30186;DHT22;31152;49.190;8.122;2023-05-01T13:41:27;20.00;93.40
30186;DHT22;31152;49.190;8.122;2023-05-01T13:43:55;19.90;93.10
30186;DHT22;31152;49.190;8.122;2023-05-01T13:46:23;19.90;93.60
30186;DHT22;31152;49.190;8.122;2023-05-01T13:48:53;19.90;93.70
30186;DHT22;31152;49.190;8.122;2023-05-01T13:51:21;20.00;93.40
30186;DHT22;31152;49.190;8.122;2023-05-01T13:53:51;20.00;93.30
30186;DHT22;31152;49.190;8.122;2023-05-01T13:56:20;19.80;92.90
30186;DHT22;31152;49.190;8.122;2023-05-01T13:58:48;19.60;94.10
30186;DHT22;31152;49.190;8.122;2023-05-01T14:01:20;19.70;94.70
30186;DHT22;31152;49.190;8.122;2023-05-01T14:03:48;19.90;94.10
30186;DHT22;31152;49.190;8.122;2023-05-01T14:06:19;20.10;94.20
30186;DHT22;31152;49.190;8.122;2023-05-01T14:08:50;20.30;94.30
30186;DHT22;31152;49.190;8.122;2023-05-01T14:11:17;20.30;93.50
30186;DHT22;31152;49.190;8.122;2023-05-01T14:13:46;20.30;93.50
30186;DHT22;31152;49.190;8.122;2023-05-01T14:16:24;20.30;94.00
30186;DHT22;31152;49.190;8.122;2023-05-01T14:18:53;19.90;94.10
30186;DHT22;31152;49.190;8.122;2023-05-01T14:21:24;20.10;94.30
30186;DHT22;31152;49.190;8.122;2023-05-01T14:23:54;20.40;95.10
30186;DHT22;31152;49.190;8.122;2023-05-01T14:26:22;20.70;94.10
30186;DHT22;31152;49.190;8.122;2023-05-01T14:28:50;21.00;93.00
30186;DHT22;31152;49.190;8.122;2023-05-01T14:31:28;21.20;92.80
30186;DHT22;31152;49.190;8.122;2023-05-01T14:34:00;21.40;92.60
30186;DHT22;31152;49.190;8.122;2023-05-01T14:36:28;21.60;92.50
30186;DHT22;31152;49.190;8.122;2023-05-01T14:39:01;21.80;92.00
30186;DHT22;31152;49.190;8.122;2023-05-01T14:41:29;22.00;91.80
30186;DHT22;31152;49.190;8.122;2023-05-01T14:44:04;22.20;91.80
30186;DHT22;31152;49.190;8.122;2023-05-01T14:46:34;22.30;91.80
30186;DHT22;31152;49.190;8.122;2023-05-01T14:49:02;22.40;90.80
30186;DHT22;31152;49.190;8.122;2023-05-01T14:51:32;22.40;90.30
30186;DHT22;31152;49.190;8.122;2023-05-01T14:53:59;22.40;90.00
30186;DHT22;31152;49.190;8.122;2023-05-01T14:56:26;22.30;90.30
30186;DHT22;31152;49.190;8.122;2023-05-01T14:58:53;22.20;90.20
30186;DHT22;31152;49.190;8.122;2023-05-01T15:01:22;22.00;90.60
30186;DHT22;31152;49.190;8.122;2023-05-01T15:03:51;21.80;90.00
30186;DHT22;31152;49.190;8.122;2023-05-01T15:06:19;21.70;90.10
30186;DHT22;31152;49.190;8.122;2023-05-01T15:08:50;21.50;90.60
30186;DHT22;31152;49.190;8.122;2023-05-01T15:11:16;21.40;91.30
30186;DHT22;31152;49.190;8.122;2023-05-01T15:13:44;21.20;91.10
30186;DHT22;31152;49.190;8.122;2023-05-01T15:16:11;21.00;91.40
30186;DHT22;31152;49.190;8.122;2023-05-01T15:18:38;20.90;91.70
30186;DHT22;31152;49.190;8.122;2023-05-01T15:21:05;20.60;92.00
30186;DHT22;31152;49.190;8.122;2023-05-01T15:23:32;20.50;91.90
30186;DHT22;31152;49.190;8.122;2023-05-01T15:25:59;20.10;92.10
30186;DHT22;31152;49.190;8.122;2023-05-01T15:28:28;19.70;93.10
30186;DHT22;31152;49.190;8.122;2023-05-01T15:30:55;19.00;95.00
30186;DHT22;31152;49.190;8.122;2023-05-01T15:33:25;18.50;98.80
30186;DHT22;31152;49.190;8.122;2023-05-01T15:35:52;17.70;99.90
30186;DHT22;31152;49.190;8.122;2023-05-01T15:38:19;17.30;99.90
30186;DHT22;31152;49.190;8.122;2023-05-01T15:40:47;16.70;99.90
30186;DHT22;31152;49.190;8.122;2023-05-01T15:43:15;16.20;99.90
30186;DHT22;31152;49.190;8.122;2023-05-01T15:45:42;15.80;99.90
30186;DHT22;31152;49.190;8.122;2023-05-01T15:48:12;15.50;99.90
30186;DHT22;31152;49.190;8.122;2023-05-01T15:50:39;15.30;99.90
30186;DHT22;31152;49.190;8.122;2023-05-01T15:53:06;15.10;99.90
30186;DHT22;31152;49.190;8.122;2023-05-01T15:55:34;14.90;99.90
30186;DHT22;31152;49.190;8.122;2023-05-01T15:58:01;14.90;99.90
30186;DHT22;31152;49.190;8.122;2023-05-01T16:00:30;14.80;99.90
30186;DHT22;31152;49.190;8.122;2023-05-01T16:03:00;14.90;99.90
30186;DHT22;31152;49.190;8.122;2023-05-01T16:05:28;15.00;99.90
30186;DHT22;31152;49.190;8.122;2023-05-01T16:07:59;15.10;99.90
30186;DHT22;31152;49.190;8.122;2023-05-01T16:10:26;15.20;99.90
30186;DHT22;31152;49.190;8.122;2023-05-01T16:12:53;15.30;99.90
30186;DHT22;31152;49.190;8.122;2023-05-01T16:15:20;15.40;99.90
30186;DHT22;31152;49.190;8.122;2023-05-01T16:17:48;15.40;99.90
30186;DHT22;31152;49.190;8.122;2023-05-01T16:20:17;15.50;99.90
30186;DHT22;31152;49.190;8.122;2023-05-01T16:22:43;15.50;99.90